Time;durP1;ratioP1;P1;durP2;ratioP2;P2;SDS_P1;SDS_P2;PMS_P1;PMS_P2;Temp;Humidity;BMP_temperature;BMP_pressure;BME280_temperature;BME280_humidity;BME280_pressure;Samples;Min_cycle;Max_cycle;Signal;HPM_P1;HPM_P2
2022/09/25 00:02:12;;;;;;;4.32;2.40;;;;;;;12.22;44.42;94186.63;5026803;28;20132;-79
2022/09/25 00:04:37;;;;;;;2.45;2.08;;;;;;;12.29;44.37;94197.59;5030158;28;20025;-80
2022/09/25 00:07:03;;;;;;;8.85;3.10;;;;;;;12.08;44.28;94159.34;5026981;28;20667;-78
2022/09/25 00:09:28;;;;;;;2.58;2.33;;;;;;;11.96;43.96;94147.41;5028123;28;20017;-78
2022/09/25 00:11:53;;;;;;;3.58;2.88;;;;;;;12.15;44.06;94176.44;5030972;28;20506;-81
2022/09/25 00:14:19;;;;;;;4.68;2.80;;;;;;;12.20;44.04;94186.16;5028609;28;20018;-78
2022/09/25 00:16:44;;;;;;;4.32;3.03;;;;;;;12.01;44.38;94173.13;5030821;28;20013;-81
2022/09/25 00:22:03;;;;;;;3.45;2.50;;;;;;;11.93;44.65;94173.91;5029889;28;20133;-78
2022/09/25 00:24:30;;;;;;;5.10;2.88;;;;;;;11.86;44.63;94158.38;5028093;28;20017;-80
2022/09/25 00:26:56;;;;;;;3.53;2.35;;;;;;;11.82;44.57;94160.09;5030945;28;20025;-79
2022/09/25 00:29:21;;;;;;;3.60;3.00;;;;;;;11.09;44.32;94065.78;5028765;28;20072;-79
2022/09/25 00:31:47;;;;;;;3.70;2.28;;;;;;;11.39;44.58;94101.41;5029127;28;20499;-78
2022/09/25 00:34:12;;;;;;;2.47;2.22;;;;;;;11.85;44.60;94172.78;5030821;28;20025;-79
2022/09/25 00:36:38;;;;;;;2.35;2.05;;;;;;;11.69;44.43;94147.69;5028878;28;20025;-79
2022/09/25 00:39:04;;;;;;;3.03;2.33;;;;;;;11.70;44.76;94154.59;5030632;28;20429;-79
2022/09/25 00:41:30;;;;;;;3.33;2.00;;;;;;;11.88;44.85;94177.50;5026422;28;20029;-80
2022/09/25 00:43:57;;;;;;;2.85;2.45;;;;;;;11.63;44.72;94138.28;5027992;28;20131;-78
2022/09/25 00:46:26;;;;;;;3.50;2.65;;;;;;;11.72;44.57;94141.75;5029725;28;20021;-79
2022/09/25 00:49:02;;;;;;;3.28;2.58;;;;;;;11.64;44.65;94139.09;5027392;28;20020;-79
2022/09/25 00:51:39;;;;;;;2.75;2.40;;;;;;;11.82;44.56;94170.75;5037517;28;20028;-79
2022/09/25 00:54:06;;;;;;;2.75;2.10;;;;;;;11.69;44.81;94163.66;5027556;28;20044;-78
2022/09/25 00:56:37;;;;;;;3.30;2.58;;;;;;;11.68;44.58;94156.78;5028673;28;20025;-79
2022/09/25 00:59:03;;;;;;;3.83;2.42;;;;;;;11.74;44.81;94174.19;5059852;28;20044;-79
2022/09/25 01:01:29;;;;;;;4.07;2.60;;;;;;;11.72;44.71;94173.72;5043348;28;20702;-78
2022/09/25 01:03:55;;;;;;;3.65;2.90;;;;;;;11.46;44.98;94132.88;5030851;28;20083;-80
2022/09/25 01:06:22;;;;;;;6.03;3.83;;;;;;;11.48;45.04;94144.81;5028036;28;21247;-79
2022/09/25 01:08:48;;;;;;;3.17;2.85;;;;;;;11.51;45.44;94141.56;5030006;28;20026;-79
2022/09/25 01:11:15;;;;;;;6.05;3.78;;;;;;;11.42;45.47;94127.41;5028000;28;20025;-79
2022/09/25 01:13:41;;;;;;;6.72;3.17;;;;;;;11.22;45.26;94100.56;5023188;28;20613;-79
2022/09/25 01:16:35;;;;;;;3.95;2.50;;;;;;;11.55;45.29;94153.16;5029289;28;20067;-79
2022/09/25 01:19:32;;;;;;;3.65;2.90;;;;;;;11.55;45.45;94157.69;5030617;28;20025;-79
2022/09/25 01:22:10;;;;;;;5.07;3.33;;;;;;;11.54;45.48;94156.16;5028540;28;20045;-79
2022/09/25 01:24:43;;;;;;;3.42;2.78;;;;;;;11.56;45.51;94143.28;5029029;28;20025;-78
2022/09/25 01:27:18;;;;;;;2.70;2.50;;;;;;;11.54;45.35;94150.81;5032908;28;20209;-79
2022/09/25 01:29:52;;;;;;;3.05;2.65;;;;;;;11.43;45.48;94128.19;5029540;28;20021;-79
2022/09/25 01:32:55;;;;;;;6.20;2.50;;;;;;;11.51;45.21;94140.75;5028887;28;20041;-79
2022/09/25 01:35:36;;;;;;;5.20;2.70;;;;;;;11.46;45.18;94154.19;5028163;28;20021;-79
2022/09/25 01:38:30;;;;;;;3.47;2.47;;;;;;;11.45;45.20;94155.28;5028438;28;20220;-79
2022/09/25 01:40:56;;;;;;;2.70;2.30;;;;;;;11.44;45.33;94151.06;5028064;28;20663;-80
2022/09/25 01:43:30;;;;;;;4.30;2.95;;;;;;;11.42;45.29;94164.69;5029413;28;20055;-79
2022/09/25 01:46:00;;;;;;;3.15;2.67;;;;;;;11.41;45.14;94162.31;5028574;28;20025;-78
2022/09/25 01:48:28;;;;;;;5.35;2.92;;;;;;;11.39;45.20;94167.97;5028960;28;20052;-78
2022/09/25 01:51:15;;;;;;;3.13;2.80;;;;;;;11.22;45.33;94143.16;5044131;28;20021;-79
2022/09/25 01:53:45;;;;;;;4.57;3.25;;;;;;;11.13;45.38;94132.50;5026500;28;20039;-78
2022/09/25 01:56:31;;;;;;;4.78;3.03;;;;;;;11.30;45.46;94161.03;5027971;28;20029;-79
2022/09/25 01:59:05;;;;;;;2.90;2.47;;;;;;;11.29;45.65;94167.47;5027539;28;20017;-78
2022/09/25 02:01:37;;;;;;;3.88;3.28;;;;;;;11.04;45.65;94132.47;5027554;28;20033;-80
2022/09/25 02:04:09;;;;;;;4.07;2.67;;;;;;;11.24;45.68;94156.97;5035105;28;20029;-80
2022/09/25 02:06:37;;;;;;;3.83;3.35;;;;;;;10.98;45.99;94123.03;5026524;28;20032;-78
2022/09/25 02:09:08;;;;;;;4.70;3.33;;;;;;;11.01;45.93;94130.41;5027887;28;20029;-78
2022/09/25 02:11:42;;;;;;;3.85;3.10;;;;;;;11.02;46.13;94134.63;5026958;28;20041;-79
2022/09/25 02:14:28;;;;;;;4.10;3.00;;;;;;;11.17;46.03;94142.22;5027080;28;20082;-79
2022/09/25 02:16:57;;;;;;;6.53;3.08;;;;;;;10.99;45.90;94129.94;5027479;28;20028;-80
2022/09/25 02:22:11;;;;;;;6.50;3.53;;;;;;;11.04;46.06;94152.97;5028659;28;20473;-78
2022/09/25 02:24:49;;;;;;;4.50;3.00;;;;;;;11.04;45.69;94161.75;5057913;28;20027;-78
2022/09/25 02:27:17;;;;;;;2.92;2.63;;;;;;;10.81;46.08;94132.84;5027818;28;20025;-80
2022/09/25 02:29:43;;;;;;;5.10;3.90;;;;;;;10.92;45.90;94161.53;5028050;28;20017;-78
2022/09/25 02:32:12;;;;;;;5.78;3.33;;;;;;;10.88;46.40;94160.56;5026604;28;20025;-78
2022/09/25 02:34:37;;;;;;;5.18;3.65;;;;;;;10.82;46.66;94150.34;5036165;28;20013;-78
2022/09/25 02:37:13;;;;;;;5.97;3.80;;;;;;;10.89;46.81;94170.13;5027927;28;20025;-79
2022/09/25 02:39:40;;;;;;;4.80;3.03;;;;;;;10.61;46.79;94124.28;5024715;28;20020;-80
2022/09/25 02:42:36;;;;;;;5.63;3.45;;;;;;;10.88;46.92;94154.47;5027903;28;20317;-79
2022/09/25 02:45:01;;;;;;;;;;;;;;;10.87;47.20;94145.69;5057490;28;20501;-78
2022/09/25 02:47:38;;;;;;;3.43;2.83;;;;;;;10.77;47.14;94158.47;5029882;28;20054;-80
2022/09/25 02:50:27;;;;;;;3.58;2.42;;;;;;;10.63;47.44;94146.03;5028719;28;20364;-79
2022/09/25 02:53:07;;;;;;;2.65;2.13;;;;;;;10.75;47.39;94164.13;5059615;28;20024;-79
2022/09/25 02:55:40;;;;;;;2.80;2.30;;;;;;;10.79;47.06;94157.09;5029038;28;20126;-78
2022/09/25 02:58:47;;;;;;;2.80;2.50;;;;;;;10.76;47.11;94147.03;5027536;28;20442;-79
2022/09/25 03:01:15;;;;;;;4.40;3.03;;;;;;;10.79;46.95;94151.75;5028756;28;20119;-79
2022/09/25 03:03:44;;;;;;;3.95;2.78;;;;;;;10.65;46.92;94135.91;5025941;28;20036;-79
2022/09/25 03:06:10;;;;;;;4.25;3.13;;;;;;;10.74;47.12;94159.88;5059140;28;20030;-79
2022/09/25 03:08:42;;;;;;;6.82;3.55;;;;;;;10.62;47.65;94141.00;5026222;28;20079;-79
2022/09/25 03:11:11;;;;;;;6.65;4.25;;;;;;;10.75;47.92;94164.13;5031772;28;20029;-79
2022/09/25 03:13:37;;;;;;;4.70;3.70;;;;;;;10.65;47.80;94151.06;5030079;28;20021;-79
2022/09/25 03:16:12;;;;;;;6.85;4.05;;;;;;;10.75;47.84;94156.13;5032452;28;20028;-79
2022/09/25 03:18:37;;;;;;;6.20;4.97;;;;;;;10.75;47.71;94161.44;5031628;28;20397;-80
2022/09/25 03:21:03;;;;;;;7.25;4.57;;;;;;;10.75;48.00;94166.78;5030873;28;20033;-79
2022/09/25 03:23:30;;;;;;;8.50;5.95;;;;;;;10.62;48.36;94146.34;5031786;28;20053;-79
2022/09/25 03:25:55;;;;;;;6.50;5.03;;;;;;;10.58;48.44;94140.84;5031791;28;20933;-79
2022/09/25 03:28:22;;;;;;;6.95;5.32;;;;;;;10.75;48.52;94158.78;5031310;28;20140;-79
2022/09/25 03:31:01;;;;;;;9.18;5.13;;;;;;;10.55;48.43;94136.16;5028515;28;20060;-79
2022/09/25 03:33:41;;;;;;;6.25;4.72;;;;;;;10.65;48.32;94135.09;5032258;28;20027;-78
2022/09/25 03:36:13;;;;;;;4.60;3.85;;;;;;;10.55;48.32;94117.53;5030225;28;20028;-79
2022/09/25 03:38:42;;;;;;;8.20;4.78;;;;;;;10.69;48.11;94147.50;5033032;28;20025;-79
2022/09/25 03:41:10;;;;;;;9.00;4.03;;;;;;;10.74;47.97;94155.34;5030457;28;20039;-79
2022/09/25 03:43:36;;;;;;;6.90;4.30;;;;;;;10.75;47.94;94148.16;5032203;28;20032;-78
2022/09/25 03:46:03;;;;;;;9.38;5.70;;;;;;;10.73;47.98;94137.00;5030338;28;20570;-81
2022/09/25 03:48:29;;;;;;;8.57;5.53;;;;;;;10.34;48.09;94105.78;5030346;28;20040;-78
2022/09/25 03:50:55;;;;;;;7.32;4.95;;;;;;;10.67;47.81;94157.63;5031051;28;20094;-79
2022/09/25 03:53:21;;;;;;;8.63;6.00;;;;;;;10.58;48.45;94140.06;5029867;28;20592;-78
2022/09/25 03:55:47;;;;;;;8.88;6.65;;;;;;;10.63;48.18;94164.66;5029621;28;20021;-79
2022/09/25 03:58:15;;;;;;;9.07;6.53;;;;;;;10.46;48.59;94126.56;5029189;28;20416;-79
2022/09/25 04:00:40;;;;;;;9.13;6.15;;;;;;;10.63;48.29;94169.19;5028638;28;20116;-78
2022/09/25 04:03:06;;;;;;;8.98;6.50;;;;;;;10.48;48.34;94145.63;5027711;28;20090;-79
2022/09/25 04:05:31;;;;;;;9.73;6.53;;;;;;;10.58;48.17;94153.34;5029261;28;20484;-79
2022/09/25 04:07:57;;;;;;;8.38;5.70;;;;;;;10.44;48.17;94142.81;5029826;28;20025;-79
2022/09/25 04:10:22;;;;;;;8.23;5.50;;;;;;;10.50;48.12;94157.53;5028014;28;20045;-79
2022/09/25 04:12:53;;;;;;;8.93;5.50;;;;;;;10.42;48.04;94154.81;5028333;28;20521;-79
2022/09/25 04:15:22;;;;;;;8.48;5.05;;;;;;;10.38;48.16;94148.53;5029506;28;20686;-78
2022/09/25 04:17:47;;;;;;;8.88;5.97;;;;;;;10.31;48.39;94133.78;5033436;28;20032;-79
2022/09/25 04:20:13;;;;;;;8.23;5.60;;;;;;;10.38;48.13;94153.84;5029504;28;20013;-80
2022/09/25 04:22:38;;;;;;;8.23;6.25;;;;;;;10.24;48.53;94136.06;5029005;28;20049;-79
2022/09/25 04:25:04;;;;;;;9.82;6.65;;;;;;;10.32;48.44;94164.56;5028279;28;20477;-79
2022/09/25 04:27:31;;;;;;;7.47;5.68;;;;;;;10.28;48.34;94146.88;5029049;28;20431;-80
2022/09/25 04:29:56;;;;;;;7.55;5.50;;;;;;;10.39;48.46;94163.41;5029421;28;20461;-80
2022/09/25 04:35:06;;;;;;;9.02;5.88;;;;;;;10.13;48.40;94134.75;5029143;28;20209;-78
2022/09/25 04:37:32;;;;;;;9.55;6.30;;;;;;;10.27;48.39;94162.03;5029606;28;20529;-78
2022/09/25 04:39:57;;;;;;;9.65;6.20;;;;;;;10.46;48.69;94187.72;5029247;28;20026;-79
2022/09/25 04:42:24;;;;;;;8.93;5.50;;;;;;;10.43;48.50;94178.44;5030478;28;20033;-80
2022/09/25 04:44:52;;;;;;;7.78;5.00;;;;;;;10.26;48.59;94159.72;5027685;28;20107;-79
2022/09/25 04:47:18;;;;;;;7.45;5.40;;;;;;;10.33;48.88;94160.06;5031741;28;20041;-79
2022/09/25 04:49:43;;;;;;;9.85;5.70;;;;;;;10.29;48.80;94145.78;5026845;28;20024;-79
2022/09/25 04:52:12;;;;;;;9.07;5.85;;;;;;;10.27;48.84;94146.09;5028960;28;20029;-79
2022/09/25 04:54:37;;;;;;;8.98;6.20;;;;;;;10.30;49.04;94131.41;5026530;28;20061;-78
2022/09/25 04:57:04;;;;;;;7.38;5.18;;;;;;;10.57;49.21;94173.84;5033672;28;20598;-78
2022/09/25 04:59:33;;;;;;;9.02;5.05;;;;;;;10.63;48.81;94166.53;5029124;28;20018;-80
2022/09/25 05:01:58;;;;;;;7.65;5.30;;;;;;;10.55;48.95;94162.75;5029535;28;20028;-78
2022/09/25 05:04:24;;;;;;;10.25;6.65;;;;;;;10.59;48.77;94165.56;5060059;28;20021;-79
2022/09/25 05:06:50;;;;;;;10.48;6.70;;;;;;;10.52;49.14;94150.03;5027756;28;20098;-79
2022/09/25 05:09:16;;;;;;;8.98;6.88;;;;;;;10.64;49.29;94154.81;5029768;28;20029;-78
2022/09/25 05:11:41;;;;;;;10.30;7.22;;;;;;;10.44;49.01;94108.22;5057570;28;20103;-78
2022/09/25 05:14:07;;;;;;;11.30;7.75;;;;;;;10.84;49.34;94148.19;5028937;28;20473;-80
2022/09/25 05:16:33;;;;;;;13.55;8.18;;;;;;;10.99;49.32;94161.88;5030393;28;20025;-78
2022/09/25 05:18:58;;;;;;;8.93;6.60;;;;;;;10.93;49.28;94136.50;5028238;28;20036;-78
2022/09/25 05:21:24;;;;;;;10.30;7.30;;;;;;;11.11;49.31;94151.44;5028594;28;20552;-79
2022/09/25 05:23:50;;;;;;;10.88;8.00;;;;;;;11.13;49.38;94146.59;5028712;28;20045;-79
2022/09/25 05:26:15;;;;;;;12.30;8.45;;;;;;;11.22;49.28;94148.47;5028460;28;20029;-79
2022/09/25 05:28:40;;;;;;;13.25;7.75;;;;;;;11.12;48.96;94134.38;5030065;28;20098;-79
2022/09/25 05:31:06;;;;;;;13.27;8.27;;;;;;;11.38;49.12;94157.63;5028285;28;20107;-79
2022/09/25 05:33:34;;;;;;;15.40;8.18;;;;;;;11.45;48.86;94157.94;5028522;28;20021;-79
2022/09/25 05:36:04;;;;;;;13.25;8.05;;;;;;;11.34;48.80;94130.84;5027535;28;20344;-80
2022/09/25 05:38:31;;;;;;;13.43;8.95;;;;;;;11.05;49.17;94075.47;5028485;28;20137;-80
2022/09/25 05:41:02;;;;;;;11.60;8.48;;;;;;;11.59;49.25;94142.66;5028340;28;20021;-79
2022/09/25 05:43:27;;;;;;;13.18;8.73;;;;;;;11.57;49.09;94140.31;5029084;28;20502;-78
2022/09/25 05:45:54;;;;;;;11.27;8.00;;;;;;;11.77;49.01;94157.59;5037390;28;20688;-79
2022/09/25 05:48:19;;;;;;;16.13;9.05;;;;;;;11.77;48.95;94148.81;5028346;28;20028;-79
2022/09/25 05:50:53;;;;;;;14.18;8.77;;;;;;;11.97;49.06;94170.31;5029256;28;20026;-79
2022/09/25 05:53:19;;;;;;;13.18;8.93;;;;;;;12.00;48.96;94171.56;5057632;28;20120;-79
2022/09/25 05:55:58;;;;;;;16.75;9.13;;;;;;;12.12;48.44;94176.28;5029077;28;20023;-79
2022/09/25 05:58:25;;;;;;;12.27;9.32;;;;;;;12.22;48.73;94171.41;5028856;28;20060;-79
2022/09/25 06:00:51;;;;;;;11.98;8.35;;;;;;;12.27;48.60;94157.16;5029958;28;20101;-80
2022/09/25 06:03:18;;;;;;;13.80;8.15;;;;;;;12.09;47.39;94139.56;5029377;28;20029;-80
2022/09/25 06:05:45;;;;;;;13.77;9.13;;;;;;;12.08;47.77;94133.44;5026225;28;20104;-81
2022/09/25 06:08:11;;;;;;;13.07;9.63;;;;;;;12.27;47.91;94138.47;5027648;28;20129;-79
2022/09/25 06:10:37;;;;;;;14.18;10.60;;;;;;;12.25;46.93;94148.66;5026090;28;20026;-79
2022/09/25 06:13:05;;;;;;;15.05;10.30;;;;;;;12.40;47.74;94145.50;5025899;28;20030;-81
2022/09/25 06:15:36;;;;;;;17.02;10.18;;;;;;;12.54;47.36;94146.13;5028182;28;20072;-79
2022/09/25 06:18:03;;;;;;;13.38;9.13;;;;;;;12.56;46.93;94125.25;5027334;28;20069;-79
2022/09/25 06:20:29;;;;;;;13.90;8.45;;;;;;;12.66;46.21;94132.94;5059104;28;20022;-78
2022/09/25 06:22:55;;;;;;;14.80;9.60;;;;;;;12.86;46.44;94153.59;5027544;28;20694;-79
2022/09/25 06:25:25;;;;;;;12.77;9.02;;;;;;;13.06;46.03;94162.00;5027970;28;20033;-79
2022/09/25 06:28:01;;;;;;;13.80;9.38;;;;;;;13.21;45.92;94175.63;5027762;28;20029;-79
2022/09/25 06:30:33;;;;;;;13.68;9.18;;;;;;;13.31;45.74;94172.59;5027181;28;20552;-79
2022/09/25 06:33:11;;;;;;;15.70;9.85;;;;;;;13.17;46.21;94125.84;5058511;28;20028;-79
2022/09/25 06:35:44;;;;;;;12.18;8.60;;;;;;;13.53;45.75;94171.56;5059147;28;20095;-80
2022/09/25 06:38:10;;;;;;;14.07;9.35;;;;;;;13.35;45.32;94148.69;5026755;28;20033;-81
2022/09/25 06:40:39;;;;;;;15.40;9.18;;;;;;;13.58;45.28;94176.72;5034711;28;20013;-79
2022/09/25 06:43:08;;;;;;;13.15;9.10;;;;;;;13.44;45.43;94135.31;5029091;28;20032;-79
2022/09/25 06:45:34;;;;;;;12.18;8.13;;;;;;;13.67;45.21;94163.34;5027086;28;20505;-79
2022/09/25 06:48:05;;;;;;;9.98;7.10;;;;;;;13.56;44.98;94141.53;5027146;28;20370;-79
2022/09/25 06:50:36;;;;;;;12.05;8.35;;;;;;;13.82;44.92;94167.34;5058319;28;20116;-80
2022/09/25 06:53:02;;;;;;;10.45;6.88;;;;;;;13.49;44.54;94101.19;5026520;28;20108;-79
2022/09/25 06:55:31;;;;;;;7.00;5.40;;;;;;;13.78;43.86;94150.38;5059253;28;20036;-78
2022/09/25 06:57:57;;;;;;;8.70;6.07;;;;;;;13.93;43.62;94168.53;5027357;28;20033;-81
2022/09/25 07:00:22;;;;;;;7.22;4.05;;;;;;;13.55;42.47;94107.88;5030138;28;20021;-79
2022/09/25 07:05:32;;;;;;;5.60;4.07;;;;;;;14.12;42.27;94182.25;5030536;28;20040;-79
2022/09/25 07:07:58;;;;;;;5.57;3.72;;;;;;;13.84;42.54;94155.19;5026810;28;20038;-78
2022/09/25 07:10:23;;;;;;;7.43;4.45;;;;;;;14.09;43.11;94172.19;5058331;28;20021;-79
2022/09/25 07:12:49;;;;;;;8.00;4.80;;;;;;;14.12;42.45;94182.25;5027024;28;20065;-78
2022/09/25 07:15:14;;;;;;;6.00;4.82;;;;;;;14.16;41.70;94201.88;5026646;28;20025;-79
2022/09/25 07:17:43;;;;;;;6.63;4.10;;;;;;;13.78;42.34;94150.38;5027523;28;20036;-79
2022/09/25 07:20:11;;;;;;;5.68;4.32;;;;;;;14.22;42.40;94208.59;5028004;28;20057;-79
2022/09/25 07:22:37;;;;;;;5.93;4.10;;;;;;;14.27;41.78;94216.44;5028101;28;20045;-80
2022/09/25 07:25:03;;;;;;;6.28;4.07;;;;;;;14.09;41.51;94189.00;5025653;28;20049;-79
2022/09/25 07:27:29;;;;;;;5.18;3.95;;;;;;;14.26;41.42;94216.75;5026858;28;20025;-79
2022/09/25 07:29:55;;;;;;;5.75;4.03;;;;;;;14.28;41.66;94196.56;5028532;28;20131;-80
2022/09/25 07:32:21;;;;;;;6.53;4.82;;;;;;;14.31;42.03;94190.59;5027898;28;20031;-78
2022/09/25 07:34:48;;;;;;;5.53;3.88;;;;;;;14.49;41.99;94205.38;5025943;28;20029;-80
2022/09/25 07:37:14;;;;;;;5.10;3.83;;;;;;;14.56;41.26;94194.97;5025817;28;20925;-78
2022/09/25 07:39:40;;;;;;;4.85;4.22;;;;;;;14.64;41.47;94192.53;5025633;28;20022;-80
2022/09/25 07:42:05;;;;;;;6.38;4.57;;;;;;;14.41;41.46;94135.91;5028030;28;20414;-78
2022/09/25 07:44:31;;;;;;;8.02;5.15;;;;;;;14.60;41.54;94155.75;5026617;28;20040;-80
2022/09/25 07:46:56;;;;;;;10.20;5.10;;;;;;;14.66;40.25;94164.34;5031556;28;20098;-79
2022/09/25 07:49:21;;;;;;;6.93;4.20;;;;;;;14.82;40.86;94169.84;5027971;28;20030;-80
2022/09/25 07:51:47;;;;;;;7.53;5.53;;;;;;;14.73;40.69;94147.72;5027035;28;20057;-79
2022/09/25 07:54:12;;;;;;;6.82;5.10;;;;;;;14.69;41.03;94141.47;5027513;28;20034;-79
2022/09/25 07:56:38;;;;;;;9.13;5.22;;;;;;;14.80;41.06;94145.31;5027982;28;20026;-79
2022/09/25 07:59:03;;;;;;;4.80;4.22;;;;;;;14.74;40.88;94128.66;5030407;28;20025;-79
2022/09/25 08:01:28;;;;;;;5.93;4.32;;;;;;;14.86;40.78;94138.63;5062867;28;20029;-79
2022/09/25 08:03:54;;;;;;;7.20;3.95;;;;;;;14.88;40.81;94133.72;5029641;28;20386;-79
2022/09/25 08:06:19;;;;;;;4.57;3.92;;;;;;;15.01;39.68;94148.69;5029397;28;20469;-79
2022/09/25 08:08:45;;;;;;;8.98;3.63;;;;;;;15.13;39.45;94167.47;5031804;28;20546;-79
2022/09/25 08:11:13;;;;;;;6.35;3.97;;;;;;;15.17;40.13;94168.34;5030038;28;20025;-79
2022/09/25 08:13:40;;;;;;;6.78;4.53;;;;;;;15.20;40.20;94158.88;5028285;28;20021;-79
2022/09/25 08:16:14;;;;;;;6.50;4.70;;;;;;;14.87;40.64;94102.69;5029814;28;20032;-80
2022/09/25 08:18:41;;;;;;;7.35;5.13;;;;;;;15.28;40.41;94153.41;5038259;28;20124;-79
2022/09/25 08:21:07;;;;;;;6.13;4.75;;;;;;;15.28;40.90;94148.06;5028333;28;20566;-79
2022/09/25 08:23:33;;;;;;;6.85;4.32;;;;;;;15.24;40.93;94131.09;5031258;28;20127;-79
2022/09/25 08:26:00;;;;;;;5.70;4.20;;;;;;;15.42;40.08;94137.00;5032677;28;20021;-80
2022/09/25 08:28:26;;;;;;;6.97;4.07;;;;;;;15.45;38.85;94131.00;5028872;28;20021;-80
2022/09/25 08:30:52;;;;;;;5.85;4.63;;;;;;;15.25;38.78;94095.16;5029431;28;20025;-79
2022/09/25 08:33:19;;;;;;;5.90;4.43;;;;;;;15.49;39.10;94120.41;5028592;28;20442;-80
2022/09/25 08:35:56;;;;;;;6.95;4.75;;;;;;;15.49;39.44;94115.03;5029829;28;20029;-79
2022/09/25 08:38:23;;;;;;;5.70;4.95;;;;;;;15.49;39.16;94110.47;5037568;28;20495;-78
2022/09/25 08:41:19;;;;;;;4.93;4.00;;;;;;;15.46;38.96;94095.81;5045267;28;20021;-80
2022/09/25 08:44:05;;;;;;;5.10;4.00;;;;;;;15.69;38.59;94140.94;5029581;28;20075;-79
2022/09/25 08:49:34;;;;;;;5.85;4.25;;;;;;;15.31;38.71;94072.34;5030658;28;20126;-80
2022/09/25 08:52:04;;;;;;;4.65;4.05;;;;;;;15.55;38.32;94103.75;5035700;28;20031;-79
2022/09/25 08:54:31;;;;;;;6.95;4.47;;;;;;;15.66;37.97;94114.78;5028448;28;20032;-81
2022/09/25 08:57:21;;;;;;;5.40;4.00;;;;;;;15.75;38.03;94112.75;5029377;28;20035;-79
2022/09/25 08:59:54;;;;;;;8.05;4.22;;;;;;;15.67;38.13;94098.38;5025471;28;20029;-79
2022/09/25 09:02:23;;;;;;;8.07;4.88;;;;;;;15.85;37.90;94123.03;5028063;28;20137;-80
2022/09/25 09:04:57;;;;;;;5.85;3.83;;;;;;;15.70;38.29;94088.84;5058924;28;20025;-80
2022/09/25 09:07:36;;;;;;;8.80;4.55;;;;;;;15.90;38.30;94109.38;5030070;28;20032;-78
2022/09/25 09:10:21;;;;;;;4.20;3.10;;;;;;;16.08;37.97;94118.75;5029303;28;20413;-79
2022/09/25 09:12:53;;;;;;;4.90;4.45;;;;;;;16.11;36.83;94115.38;5027809;28;20017;-80
2022/09/25 09:15:35;;;;;;;4.57;3.90;;;;;;;16.16;36.69;94103.63;5028532;28;20033;-79
2022/09/25 09:18:13;;;;;;;4.65;3.60;;;;;;;16.14;36.75;94087.84;5059965;28;20116;-80
2022/09/25 09:20:51;;;;;;;3.90;3.47;;;;;;;16.07;36.05;94076.94;5028349;28;20315;-78
2022/09/25 09:23:20;;;;;;;13.35;4.75;;;;;;;16.03;36.35;94076.06;5028145;28;20028;-79
2022/09/25 09:26:01;;;;;;;3.88;3.42;;;;;;;16.25;36.24;94088.94;5030867;28;20014;-79
2022/09/25 09:28:47;;;;;;;4.30;3.50;;;;;;;15.74;37.04;94012.00;5030091;28;20130;-79
2022/09/25 09:31:16;;;;;;;3.88;3.08;;;;;;;16.31;35.88;94097.56;5058678;28;20028;-79
2022/09/25 09:33:56;;;;;;;4.90;3.60;;;;;;;16.33;36.05;94083.81;5029577;28;20048;-80
2022/09/25 09:36:32;;;;;;;4.65;3.55;;;;;;;16.40;35.75;94089.34;5027762;28;20029;-79
2022/09/25 09:39:11;;;;;;;4.70;3.72;;;;;;;16.30;35.94;94066.44;5057731;28;20428;-79
2022/09/25 09:41:55;;;;;;;5.03;3.72;;;;;;;16.55;36.08;94083.25;5059263;28;20374;-80
2022/09/25 09:44:40;;;;;;;4.38;3.58;;;;;;;16.53;35.37;94061.31;5026727;28;20109;-80
2022/09/25 09:47:24;;;;;;;5.18;3.08;;;;;;;16.53;35.22;94082.78;5058152;28;20024;-79
2022/09/25 09:49:56;;;;;;;5.35;3.28;;;;;;;16.57;36.08;94079.09;5027338;28;20070;-81
2022/09/25 09:52:34;;;;;;;4.32;3.30;;;;;;;16.50;35.76;94062.00;5029894;28;20032;-79
2022/09/25 09:55:15;;;;;;;3.85;3.33;;;;;;;16.67;34.99;94081.25;5027592;28;20568;-80
2022/09/25 09:57:50;;;;;;;6.45;3.65;;;;;;;16.76;35.48;94075.75;5027649;28;20029;-79
2022/09/25 10:00:19;;;;;;;4.30;3.53;;;;;;;16.71;35.69;94063.34;5027333;28;20020;-80
2022/09/25 10:02:52;;;;;;;5.88;3.53;;;;;;;16.61;33.90;94049.66;5028205;28;20212;-81
2022/09/25 10:05:25;;;;;;;3.58;2.97;;;;;;;16.63;34.30;94055.44;5028727;28;20329;-81
2022/09/25 10:07:52;;;;;;;3.13;2.83;;;;;;;16.68;34.58;94057.88;5029353;28;20086;-80
2022/09/25 10:10:18;;;;;;;3.80;2.97;;;;;;;16.53;34.23;94039.84;5027358;28;20029;-80
2022/09/25 10:12:52;;;;;;;5.78;3.25;;;;;;;16.71;35.00;94054.50;5027383;28;20018;-80
2022/09/25 10:15:51;;;;;;;2.90;2.60;;;;;;;16.93;35.51;94066.56;5027367;28;20087;-81
2022/09/25 10:18:18;;;;;;;5.07;3.42;;;;;;;16.97;34.24;94062.81;5042085;28;20397;-80
2022/09/25 10:20:56;;;;;;;3.85;2.95;;;;;;;16.97;33.90;94044.00;5026993;28;20022;-79
2022/09/25 10:23:37;;;;;;;3.38;2.95;;;;;;;17.00;33.94;94042.56;5022579;28;20692;-80
2022/09/25 10:26:21;;;;;;;3.35;2.92;;;;;;;16.97;34.24;94044.00;5057312;28;20116;-79
2022/09/25 10:28:47;;;;;;;5.30;3.88;;;;;;;16.98;34.31;94028.69;5028716;28;20099;-80
2022/09/25 10:31:15;;;;;;;4.53;2.92;;;;;;;17.00;33.63;94021.84;5030666;28;20478;-80
2022/09/25 10:33:40;;;;;;;4.60;3.20;;;;;;;17.15;37.43;94039.91;5028696;28;20058;-80
2022/09/25 10:36:06;;;;;;;3.83;2.70;;;;;;;17.07;34.00;94021.22;5029709;28;20602;-80
2022/09/25 10:38:42;;;;;;;2.78;2.33;;;;;;;17.27;33.92;94035.53;5027902;28;20029;-79
2022/09/25 10:41:11;;;;;;;3.45;2.75;;;;;;;17.14;33.59;94005.31;5057705;28;20017;-79
2022/09/25 10:44:00;;;;;;;3.63;3.17;;;;;;;17.39;34.34;94035.44;5028889;28;20021;-81
2022/09/25 10:52:12;;;;;;;3.45;2.50;;;;;;;17.11;33.86;94004.03;5029308;28;20090;-80
2022/09/25 10:54:38;;;;;;;3.53;2.70;;;;;;;17.36;33.53;94012.69;5029361;28;20119;-79
2022/09/25 10:57:33;;;;;;;2.78;1.98;;;;;;;17.50;36.39;94026.44;5027217;28;20108;-79
2022/09/25 11:00:00;;;;;;;3.33;2.80;;;;;;;17.26;35.41;94009.81;5040669;28;20051;-80
2022/09/25 11:02:36;;;;;;;4.50;2.28;;;;;;;17.34;34.30;94000.75;5027645;28;20117;-79
2022/09/25 11:05:03;;;;;;;3.42;2.40;;;;;;;17.54;33.71;94013.09;5025798;28;20084;-80
2022/09/25 11:07:29;;;;;;;4.20;2.55;;;;;;;17.58;33.45;94008.56;5028455;28;20451;-79
2022/09/25 11:09:55;;;;;;;3.67;2.60;;;;;;;17.79;33.88;94017.09;5024075;28;20535;-80
2022/09/25 11:12:24;;;;;;;3.70;2.75;;;;;;;17.68;33.64;93981.13;5027842;28;20025;-79
2022/09/25 11:15:16;;;;;;;4.10;2.80;;;;;;;17.98;33.21;93998.28;5028851;28;20044;-80
2022/09/25 11:17:44;;;;;;;3.22;2.83;;;;;;;18.04;34.13;93998.75;5026229;28;20040;-79
2022/09/25 11:20:16;;;;;;;4.18;2.60;;;;;;;18.14;34.00;93997.44;5025290;28;20419;-80
2022/09/25 11:23:20;;;;;;;2.35;2.08;;;;;;;18.14;33.39;93990.13;5027154;28;20637;-79
2022/09/25 11:26:05;;;;;;;2.90;2.38;;;;;;;18.07;33.52;93963.09;5028059;28;20389;-80
2022/09/25 11:28:48;;;;;;;7.13;3.60;;;;;;;18.39;32.65;93998.66;5057933;28;20443;-79
2022/09/25 11:31:22;;;;;;;3.83;2.45;;;;;;;18.47;31.99;93981.50;5030257;28;20298;-80
2022/09/25 11:34:38;;;;;;;3.30;2.38;;;;;;;18.56;32.44;93981.25;5030181;28;20048;-79
2022/09/25 11:37:17;;;;;;;4.15;2.30;;;;;;;18.52;32.35;93959.66;5032085;28;20040;-79
2022/09/25 11:42:31;;;;;;;3.88;2.40;;;;;;;18.75;32.02;93982.00;5030512;28;20040;-81
2022/09/25 11:44:57;;;;;;;5.20;3.55;;;;;;;18.80;32.23;93975.53;5039245;28;20420;-80
2022/09/25 11:47:54;;;;;;;3.95;2.33;;;;;;;18.89;31.66;93968.75;5030349;28;20021;-81
2022/09/25 11:50:28;;;;;;;3.58;2.42;;;;;;;18.78;31.54;93946.25;5029825;28;20580;-80
2022/09/25 11:53:36;;;;;;;3.30;3.00;;;;;;;18.99;33.71;93955.81;5030063;28;20385;-80
2022/09/25 11:56:09;;;;;;;3.10;2.33;;;;;;;19.03;31.48;93962.03;5026445;28;20037;-80
2022/09/25 11:58:59;;;;;;;2.78;2.00;;;;;;;19.13;30.60;93947.94;5059921;28;20052;-79
2022/09/25 12:01:33;;;;;;;3.45;2.03;;;;;;;19.19;30.74;93949.19;5030937;28;20041;-79
2022/09/25 12:04:17;;;;;;;2.03;1.80;;;;;;;19.27;30.52;93945.44;5030582;28;20025;-80
2022/09/25 12:07:01;;;;;;;2.65;2.08;;;;;;;19.31;30.26;93940.88;5031188;28;20029;-79
2022/09/25 12:09:50;;;;;;;3.38;1.88;;;;;;;19.37;30.77;93936.72;5031842;28;20075;-78
2022/09/25 12:12:18;;;;;;;3.30;2.30;;;;;;;19.43;29.86;93940.66;5030435;28;20086;-79
2022/09/25 12:14:56;;;;;;;3.55;2.20;;;;;;;19.50;30.65;93930.00;5029897;28;20052;-79